Saturday, January 20, 2018, 9:20 AM GMT
Back to Local

CYBG, Bagotville, Que.

Location: , , Canada Lat: 48.333
Local Time: 9:20 AM GMT ( 9:20 GMT) Lon: -71
Time Zone: GMT Elev: 521 ft

Show me the last for .
Show Coded

Time T Td Feel RH Dir Speed Gust Alt SLP Vis Weather Sky Remarks
2018-01-20 09:00 21 18 9 85 100° 12 - 29.27 29.30 1 -SN VV007 None
2018-01-20 08:39 21 18 9 85 100° 12 - 29.28 29.31 2 -SN OVC015 None
2018-01-20 08:00 19 18 7 92 100° 13 - 29.31 29.35 0 -SN VV004 Pressure falling rapidly
2018-01-20 07:00 19 16 7 85 100° 13 - 29.41 29.44 0 SN VV004 None
2018-01-20 06:47 19 16 6 85 100° 14 - 29.41 29.44 0 SN VV004 None
2018-01-20 06:00 19 16 5 85 90° 15 - 29.40 29.43 1 -SN VV006 None
2018-01-20 05:25 19 16 3 85 100° 15 21 29.41 29.44 1 -SN VV006 Pressure falling rapidly
2018-01-20 05:00 18 14 2 85 90° 17 - 29.44 29.47 2 -SN OVC020 Pressure falling rapidly
2018-01-20 04:00 18 14 4 85 90° 13 - 29.51 29.54 3 -SN OVC030 None
2018-01-20 03:00 18 16 4 92 100° 13 - 29.56 29.60 5 -SN OVC050 None
2018-01-20 02:00 18 14 4 85 100° 14 - 29.58 29.62 3 -SN OVC040 None
2018-01-20 01:40 18 14 4 85 90° 14 - 29.59 29.63 3 -SN OVC040 None
2018-01-20 01:00 18 12 4 78 100° 13 - 29.62 29.65 15 -SN SCT030 OVC045 None
2018-01-20 00:20 18 14 6 85 110° 9 - 29.65 29.69 15 -SN BKN030 OVC040 None
2018-01-20 00:00 18 14 7 85 110° 8 - 29.66 29.70 25 OVC042 None
2018-01-19 23:00 18 14 7 85 100° 8 - 29.69 29.73 25 SCT025 OVC040 None
2018-01-19 22:00 16 14 2 92 100° 13 - 29.68 29.72 25 -SN OVC025 None
2018-01-19 21:00 16 12 4 85 100° 9 - 29.70 29.74 25 OVC026 None
2018-01-19 20:00 16 10 2 78 90° 13 - 29.71 29.75 15 -SN OVC035 None
2018-01-19 19:00 14 10 1 85 90° 10 - 29.73 29.77 15 -SN BKN030 OVC080 None
2018-01-19 18:25 14 10 1 85 90° 10 - 29.74 29.78 8 -SN FEW022 BKN030 OVC075 None
2018-01-19 18:00 12 9 2 85 90° 7 - 29.76 29.80 5 -SN BKN022 OVC035 None
2018-01-19 17:00 12 7 4 78 90° 5 - 29.79 29.83 2 -SN OVC022 None
2018-01-19 16:40 10 7 2 84 100° 5 - 29.80 29.85 5 -SN OVC022 None
2018-01-19 16:00 10 5 4 78 90° 3 - 29.82 29.86 6 -SHSN OVC023 None
2018-01-19 15:00 9 5 -5 84 90° 9 - 29.82 29.86 6 -SHSN OVC021 None
2018-01-19 14:00 9 3 2 78 130° 3 - 29.82 29.87 8 -SHSN OVC022 None
2018-01-19 13:50 9 3 - 78 90° 2 - 29.82 29.87 7 -SHSN BKN023 OVC030 None
2018-01-19 13:00 7 1 - 77 150° 2 - 29.83 29.88 6 -SHSN OVC027 None
2018-01-19 12:28 7 1 - 77 180° 2 - 29.84 29.88 5 -SHSN OVC027 None
2018-01-19 12:00 7 1 - 77 120° 2 - 29.84 29.88 6 -SHSN OVC025 None
2018-01-19 11:00 7 1 - 77 120° 2 - 29.85 29.89 25 -SHSN OVC025 None
2018-01-19 10:00 5 0 - 77 - Calm - 29.84 29.88 25 -SHSN OVC040 None

Support USWX by starting your Amazon purchase here.